Time;durP1;ratioP1;P1;durP2;ratioP2;P2;SDS_P1;SDS_P2;PMS_P1;PMS_P2;Temp;Humidity;BMP_temperature;BMP_pressure;BME280_temperature;BME280_humidity;BME280_pressure;Samples;Min_cycle;Max_cycle;Signal;HPM_P1;HPM_P2
2022/08/22 00:01:40;;;;;;;12.85;4.20;;;15.60;99.90;;;;;;5113299;27;20045;-64
2022/08/22 00:04:23;;;;;;;11.40;3.97;;;15.70;99.90;;;;;;5114471;27;20035;-64
2022/08/22 00:07:19;;;;;;;14.70;4.70;;;15.60;99.90;;;;;;5112275;27;20240;-64
2022/08/22 00:10:15;;;;;;;11.68;4.00;;;15.60;99.90;;;;;;5130253;27;20444;-65
2022/08/22 00:13:06;;;;;;;16.63;4.68;;;15.60;99.90;;;;;;5112965;27;20061;-65
2022/08/22 00:16:02;;;;;;;13.45;5.13;;;15.60;99.90;;;;;;5112486;27;20031;-65
2022/08/22 00:18:36;;;;;;;13.32;4.70;;;15.70;99.90;;;;;;5113508;27;20440;-64
2022/08/22 00:21:34;;;;;;;18.05;5.85;;;15.70;99.90;;;;;;5111906;27;20180;-64
2022/08/22 00:24:18;;;;;;;15.20;5.60;;;15.60;99.90;;;;;;5062126;27;20291;-64
2022/08/22 00:26:58;;;;;;;13.65;6.60;;;15.60;99.90;;;;;;5094644;27;20035;-64
2022/08/22 00:29:36;;;;;;;14.18;5.47;;;15.50;99.90;;;;;;5086948;27;20031;-64
2022/08/22 00:32:31;;;;;;;13.63;5.45;;;15.50;99.90;;;;;;5088903;27;20046;-64
2022/08/22 00:35:07;;;;;;;14.95;6.50;;;15.50;99.90;;;;;;5109703;27;20059;-64
2022/08/22 00:37:46;;;;;;;14.07;6.07;;;15.60;99.90;;;;;;5095107;27;20036;-65
2022/08/22 00:40:30;;;;;;;15.27;6.53;;;15.50;99.90;;;;;;5094108;27;20043;-64
2022/08/22 00:43:43;;;;;;;17.05;6.55;;;15.60;99.90;;;;;;5112690;27;20312;-65
2022/08/22 00:46:21;;;;;;;19.63;8.40;;;15.50;99.90;;;;;;5109192;27;20456;-64
2022/08/22 00:49:11;;;;;;;16.95;6.88;;;15.50;99.90;;;;;;5112626;27;20039;-64
2022/08/22 00:52:22;;;;;;;13.93;6.93;;;15.40;99.90;;;;;;5112453;27;20035;-64
2022/08/22 00:54:59;;;;;;;16.30;7.22;;;15.30;99.90;;;;;;5070820;27;20486;-65
2022/08/22 00:57:40;;;;;;;16.95;7.20;;;15.30;99.90;;;;;;5094424;27;20365;-64
2022/08/22 01:00:14;;;;;;;15.45;7.30;;;15.40;99.90;;;;;;5094977;27;20043;-64
2022/08/22 01:03:02;;;;;;;14.15;6.40;;;15.30;99.90;;;;;;5111561;27;20404;-64
2022/08/22 01:06:00;;;;;;;16.70;7.05;;;15.30;99.90;;;;;;5111582;27;20651;-64
2022/08/22 01:08:51;;;;;;;16.33;6.95;;;15.30;99.90;;;;;;5101054;27;20058;-65
2022/08/22 01:11:40;;;;;;;17.70;7.70;;;15.30;99.90;;;;;;5107159;27;20397;-65
2022/08/22 01:14:28;;;;;;;22.70;7.78;;;15.30;99.90;;;;;;5111335;27;20039;-64
2022/08/22 01:17:19;;;;;;;15.75;6.88;;;15.30;99.90;;;;;;5095054;27;20044;-64
2022/08/22 01:20:04;;;;;;;17.13;7.53;;;15.30;99.90;;;;;;5111725;27;20036;-65
2022/08/22 01:22:45;;;;;;;16.40;7.90;;;15.30;99.90;;;;;;5110298;27;20035;-64
2022/08/22 01:25:47;;;;;;;14.23;8.18;;;15.30;99.90;;;;;;5082705;27;20122;-64
2022/08/22 01:28:48;;;;;;;13.85;6.72;;;15.30;99.90;;;;;;5112969;27;20038;-64
2022/08/22 01:31:33;;;;;;;14.63;7.50;;;15.30;99.90;;;;;;5112342;27;20567;-64
2022/08/22 01:34:21;;;;;;;18.58;8.57;;;15.30;99.90;;;;;;5113411;27;20143;-65
2022/08/22 01:37:00;;;;;;;16.20;8.05;;;15.20;99.90;;;;;;5115327;27;20043;-64
2022/08/22 01:39:41;;;;;;;16.42;7.90;;;15.20;99.90;;;;;;5111474;27;20119;-64
2022/08/22 01:42:06;;;;;;;20.55;8.82;;;15.20;99.90;;;;;;5111102;27;20126;-64
2022/08/22 01:44:44;;;;;;;16.55;7.85;;;15.40;99.90;;;;;;5110447;27;20047;-65
2022/08/22 01:47:42;;;;;;;20.23;8.57;;;15.30;99.90;;;;;;5110623;27;20039;-64
2022/08/22 01:50:19;;;;;;;20.75;8.57;;;15.30;99.90;;;;;;5095400;27;20051;-64
2022/08/22 01:52:50;;;;;;;16.95;8.85;;;15.30;99.90;;;;;;5110924;27;20039;-63
2022/08/22 01:55:51;;;;;;;16.75;8.40;;;15.30;99.90;;;;;;5093773;27;20643;-65
2022/08/22 01:58:21;;;;;;;21.35;8.68;;;15.40;99.90;;;;;;5081315;27;20039;-64
2022/08/22 02:00:49;;;;;;;14.65;8.23;;;15.20;99.90;;;;;;5100869;27;20051;-64
2022/08/22 02:03:24;;;;;;;16.38;9.27;;;15.30;99.90;;;;;;5111222;27;20039;-64
2022/08/22 02:05:59;;;;;;;18.80;9.77;;;15.30;99.90;;;;;;5122087;27;20057;-64
2022/08/22 02:09:07;;;;;;;19.85;9.35;;;15.20;99.90;;;;;;5096594;27;20050;-64
2022/08/22 02:11:45;;;;;;;20.83;10.25;;;15.30;99.90;;;;;;5084036;27;20278;-64
2022/08/22 02:14:19;;;;;;;20.40;10.65;;;15.20;99.90;;;;;;5097298;27;20050;-64
2022/08/22 02:16:53;;;;;;;20.70;11.35;;;15.20;99.90;;;;;;5114044;27;20211;-64
2022/08/22 02:19:33;;;;;;;22.38;10.27;;;15.10;99.90;;;;;;5113164;27;20066;-64
2022/08/22 02:22:23;;;;;;;21.40;10.20;;;15.10;99.90;;;;;;5131304;27;20121;-65
2022/08/22 02:25:04;;;;;;;22.15;10.40;;;15.00;99.90;;;;;;5112559;27;20038;-64
2022/08/22 02:27:34;;;;;;;23.10;11.13;;;15.00;99.90;;;;;;5113813;27;20330;-64
2022/08/22 02:30:03;;;;;;;20.40;10.40;;;15.00;99.90;;;;;;5113670;27;20234;-64
2022/08/22 02:32:41;;;;;;;20.92;11.07;;;15.00;99.90;;;;;;5088111;27;20043;-64
2022/08/22 02:35:38;;;;;;;19.27;11.60;;;15.10;99.90;;;;;;5112732;27;20055;-64
2022/08/22 02:38:25;;;;;;;16.45;10.70;;;15.00;99.90;;;;;;5112611;27;20082;-64
2022/08/22 02:41:16;;;;;;;24.67;11.88;;;14.90;99.90;;;;;;5100761;27;20299;-64
2022/08/22 02:43:52;;;;;;;21.98;12.50;;;14.90;99.90;;;;;;5112720;27;20246;-64
2022/08/22 02:46:45;;;;;;;25.27;13.05;;;14.80;99.90;;;;;;5113075;27;20042;-64
2022/08/22 02:49:45;;;;;;;19.25;11.10;;;14.90;99.90;;;;;;5113098;27;20046;-65
2022/08/22 02:52:19;;;;;;;20.65;11.65;;;14.90;99.90;;;;;;5111226;27;20089;-65
2022/08/22 02:54:45;;;;;;;20.88;12.70;;;14.80;99.90;;;;;;5129265;27;20054;-65
2022/08/22 02:57:18;;;;;;;22.70;10.38;;;14.80;99.90;;;;;;5113048;27;20107;-65
2022/08/22 03:00:04;;;;;;;;;;;14.80;99.90;;;;;;5113163;27;20039;-64
2022/08/22 03:02:37;;;;;;;25.25;12.30;;;14.80;99.90;;;;;;5128991;27;20680;-64
2022/08/22 03:05:22;;;;;;;18.15;10.60;;;14.80;99.90;;;;;;5113008;27;20051;-64
2022/08/22 03:08:24;;;;;;;22.95;12.07;;;14.60;99.90;;;;;;5129640;27;20350;-64
2022/08/22 03:10:57;;;;;;;19.98;11.43;;;14.70;99.90;;;;;;5081436;27;20133;-64
2022/08/22 03:13:55;;;;;;;17.92;10.32;;;14.60;99.90;;;;;;5112602;27;20597;-64
2022/08/22 03:16:32;;;;;;;21.65;11.30;;;14.50;99.90;;;;;;5117209;27;20559;-64
2022/08/22 03:19:02;;;;;;;19.52;12.00;;;14.60;99.90;;;;;;5111598;27;20046;-64
2022/08/22 03:21:43;;;;;;;23.90;12.80;;;14.60;99.90;;;;;;5111886;27;20130;-64
2022/08/22 03:24:15;;;;;;;20.70;10.00;;;14.50;99.90;;;;;;5112815;27;20129;-64
2022/08/22 03:26:55;;;;;;;20.35;11.00;;;14.50;99.90;;;;;;5096404;27;20038;-64
2022/08/22 03:29:31;;;;;;;19.98;10.25;;;14.50;99.90;;;;;;5096614;27;20054;-64
2022/08/22 03:32:14;;;;;;;20.00;10.48;;;14.50;99.90;;;;;;5115081;27;20397;-64
2022/08/22 03:34:53;;;;;;;20.80;9.88;;;14.60;99.90;;;;;;5114471;27;20094;-64
2022/08/22 03:37:40;;;;;;;25.05;9.65;;;14.60;99.90;;;;;;5097414;27;20038;-64
2022/08/22 03:40:27;;;;;;;19.52;10.07;;;14.70;99.90;;;;;;5112454;27;20039;-64
2022/08/22 03:43:14;;;;;;;16.83;9.43;;;14.60;99.90;;;;;;5112047;27;20498;-64
2022/08/22 03:46:06;;;;;;;19.45;10.13;;;14.50;99.90;;;;;;5111278;27;20035;-64
2022/08/22 03:48:52;;;;;;;18.80;10.43;;;14.70;99.90;;;;;;5112349;27;20512;-64
2022/08/22 03:51:23;;;;;;;24.02;12.13;;;14.60;99.90;;;;;;5113259;27;20043;-64
2022/08/22 03:53:52;;;;;;;19.27;11.05;;;14.60;99.90;;;;;;5111740;27;20050;-64
2022/08/22 03:56:18;;;;;;;21.70;10.82;;;14.50;99.90;;;;;;5130890;27;20436;-64
2022/08/22 03:59:26;;;;;;;20.38;11.50;;;14.50;99.90;;;;;;5112048;27;20039;-64
2022/08/22 04:01:57;;;;;;;23.73;12.98;;;14.50;99.90;;;;;;5111495;27;20043;-64
2022/08/22 04:04:42;;;;;;;25.38;12.60;;;14.50;99.90;;;;;;5111517;27;20115;-63
2022/08/22 04:07:10;;;;;;;21.42;11.40;;;14.40;99.90;;;;;;5111522;27;20054;-64
2022/08/22 04:09:36;;;;;;;16.75;10.70;;;14.30;99.90;;;;;;5086741;27;20046;-64
2022/08/22 04:12:34;;;;;;;23.08;13.10;;;14.30;99.90;;;;;;5112064;27;20307;-64
2022/08/22 04:15:33;;;;;;;21.33;10.88;;;14.40;99.90;;;;;;5106119;27;20259;-64
2022/08/22 04:18:05;;;;;;;25.83;13.95;;;14.30;99.90;;;;;;5111498;27;20175;-64
2022/08/22 04:20:49;;;;;;;20.65;12.88;;;14.30;99.90;;;;;;5111767;27;20039;-64
2022/08/22 04:23:38;;;;;;;22.92;12.05;;;14.30;99.90;;;;;;5094037;27;20099;-64
2022/08/22 04:26:10;;;;;;;23.08;13.27;;;14.30;99.90;;;;;;5128929;27;20078;-64
2022/08/22 04:28:44;;;;;;;21.73;12.30;;;14.20;99.90;;;;;;5111545;27;20225;-64
2022/08/22 04:31:12;;;;;;;23.00;13.95;;;14.30;99.90;;;;;;5083471;27;20087;-64
2022/08/22 04:33:38;;;;;;;25.60;13.77;;;14.30;99.90;;;;;;5129853;27;20479;-64
2022/08/22 04:36:12;;;;;;;21.35;13.13;;;14.20;99.90;;;;;;5115873;27;20058;-64
2022/08/22 04:38:46;;;;;;;23.63;14.35;;;14.30;99.90;;;;;;5112031;27;20043;-64
2022/08/22 04:41:47;;;;;;;22.88;13.90;;;14.40;99.90;;;;;;5112275;27;20039;-65
2022/08/22 04:44:30;;;;;;;29.08;13.98;;;14.30;99.90;;;;;;5112442;27;20083;-64
2022/08/22 04:47:01;;;;;;;30.00;15.15;;;14.20;99.90;;;;;;5128848;27;20113;-64
2022/08/22 04:49:50;;;;;;;26.13;14.32;;;14.20;99.90;;;;;;5114478;27;20154;-64
2022/08/22 04:52:47;;;;;;;21.10;13.15;;;14.20;99.90;;;;;;5115064;27;20512;-63
2022/08/22 04:55:31;;;;;;;25.48;14.65;;;14.20;99.90;;;;;;5114295;27;20042;-63
2022/08/22 04:58:00;;;;;;;26.98;13.95;;;14.30;99.90;;;;;;5131871;27;20039;-64
2022/08/22 05:00:54;;;;;;;27.08;14.00;;;14.20;99.90;;;;;;5114047;27;20042;-64
2022/08/22 05:03:23;;;;;;;28.83;14.70;;;14.30;99.90;;;;;;5092987;27;20452;-64
2022/08/22 05:05:51;;;;;;;23.10;13.90;;;14.40;99.90;;;;;;5132976;27;20512;-64
2022/08/22 05:08:24;;;;;;;26.65;14.77;;;14.30;99.90;;;;;;5097332;27;20291;-64
2022/08/22 05:10:50;;;;;;;;;;;14.50;99.90;;;;;;5116111;27;20516;-64
2022/08/22 05:13:22;;;;;;;22.10;13.55;;;14.30;99.90;;;;;;5110368;27;20220;-64
2022/08/22 05:15:53;;;;;;;25.05;15.35;;;14.40;99.90;;;;;;5133431;27;20643;-65
2022/08/22 05:18:27;;;;;;;25.67;14.13;;;14.50;99.90;;;;;;5119621;27;20063;-64
2022/08/22 05:20:53;;;;;;;;;;;14.60;99.90;;;;;;5114698;27;20532;-64
2022/08/22 05:23:26;;;;;;;28.33;15.52;;;14.70;99.90;;;;;;5104058;27;20400;-64
2022/08/22 05:25:56;;;;;;;22.98;15.20;;;14.70;99.90;;;;;;5114534;27;20046;-64
2022/08/22 05:28:33;;;;;;;22.55;14.90;;;14.80;99.90;;;;;;5133201;27;20116;-64
2022/08/22 05:31:06;;;;;;;20.35;13.30;;;14.90;99.90;;;;;;5113779;27;20035;-64
2022/08/22 05:33:46;;;;;;;21.85;14.52;;;14.80;99.90;;;;;;5116289;27;20042;-64
2022/08/22 05:36:25;;;;;;;20.63;12.73;;;15.00;99.90;;;;;;5134090;27;20051;-64
2022/08/22 05:38:59;;;;;;;21.63;12.70;;;15.10;99.90;;;;;;5099063;27;20122;-65
2022/08/22 05:41:34;;;;;;;28.10;14.30;;;15.20;99.90;;;;;;5099122;27;20049;-65
2022/08/22 05:44:01;;;;;;;23.63;12.90;;;15.20;99.90;;;;;;5098736;27;20309;-64
2022/08/22 05:46:43;;;;;;;18.52;11.80;;;15.20;99.90;;;;;;5115460;27;20053;-64
2022/08/22 05:49:37;;;;;;;17.10;10.60;;;15.50;99.90;;;;;;5115917;27;20129;-64
2022/08/22 05:52:40;;;;;;;17.88;10.50;;;15.50;99.90;;;;;;5134304;27;20525;-64
2022/08/22 05:55:09;;;;;;;19.80;11.77;;;15.60;99.90;;;;;;5115747;27;20039;-65
2022/08/22 05:57:39;;;;;;;18.85;10.68;;;15.70;99.90;;;;;;5115518;27;20272;-65
2022/08/22 06:00:13;;;;;;;15.55;10.52;;;15.70;99.90;;;;;;5097205;27;20081;-65
2022/08/22 06:02:58;;;;;;;20.15;10.60;;;15.90;99.90;;;;;;5115781;27;20038;-65
2022/08/22 06:05:27;;;;;;;17.25;8.90;;;16.00;99.90;;;;;;5114940;27;20143;-65
2022/08/22 06:08:02;;;;;;;16.55;8.75;;;16.20;99.90;;;;;;5099752;27;20046;-64
2022/08/22 06:10:45;;;;;;;14.32;6.60;;;16.50;99.90;;;;;;5137933;27;20053;-65
2022/08/22 06:13:17;;;;;;;14.52;4.22;;;16.60;99.90;;;;;;5121991;27;20078;-64
2022/08/22 06:16:01;;;;;;;16.00;3.87;;;16.90;99.90;;;;;;5135040;27;20094;-63
2022/08/22 06:18:28;;;;;;;16.98;2.70;;;17.30;99.90;;;;;;5115797;27;20067;-64
2022/08/22 06:21:01;;;;;;;9.98;1.52;;;17.90;99.90;;;;;;5116029;27;20085;-64
2022/08/22 06:23:28;;;;;;;;;;;18.70;99.90;;;;;;5115966;27;20039;-66
2022/08/22 06:25:58;;;;;;;11.32;1.80;;;19.00;99.90;;;;;;5115670;27;20376;-64
2022/08/22 06:28:28;;;;;;;11.00;1.77;;;19.30;99.90;;;;;;5114596;27;20057;-66
2022/08/22 06:30:56;;;;;;;10.93;1.88;;;19.30;99.90;;;;;;5114461;27;20064;-65
2022/08/22 06:33:27;;;;;;;10.52;1.88;;;19.10;99.90;;;;;;5132876;27;20507;-65
2022/08/22 06:36:31;;;;;;;10.77;2.10;;;19.10;99.90;;;;;;5113729;27;20110;-65
2022/08/22 06:39:16;;;;;;;12.27;2.08;;;19.10;99.90;;;;;;5114017;27;20991;-64
2022/08/22 06:42:04;;;;;;;15.65;2.53;;;19.00;99.90;;;;;;5115366;27;20074;-65
2022/08/22 06:44:35;;;;;;;14.45;2.17;;;19.10;99.90;;;;;;5134534;27;20031;-66
2022/08/22 06:47:06;;;;;;;9.00;1.60;;;19.00;99.90;;;;;;5114744;27;20062;-64
2022/08/22 06:49:34;;;;;;;10.30;2.35;;;19.10;99.90;;;;;;5113324;27;20157;-64
2022/08/22 06:52:05;;;;;;;8.77;1.60;;;19.10;99.90;;;;;;5132217;27;20093;-64
2022/08/22 06:54:35;;;;;;;12.23;1.80;;;19.00;99.90;;;;;;5095633;27;20039;-65
2022/08/22 06:57:03;;;;;;;14.43;2.50;;;19.00;99.90;;;;;;5114002;27;20039;-65
2022/08/22 06:59:34;;;;;;;13.43;1.80;;;18.90;99.90;;;;;;5112180;27;20035;-65
2022/08/22 07:02:29;;;;;;;11.40;1.75;;;19.00;99.90;;;;;;5112766;27;20037;-64
2022/08/22 07:04:55;;;;;;;9.88;1.73;;;19.00;99.90;;;;;;5112470;27;20351;-65
2022/08/22 07:07:25;;;;;;;14.95;1.77;;;19.10;99.90;;;;;;5095911;27;20042;-65
2022/08/22 07:09:54;;;;;;;10.15;1.90;;;19.20;99.90;;;;;;5131166;27;20078;-64
2022/08/22 07:12:31;;;;;;;12.88;2.60;;;19.20;99.90;;;;;;5096980;27;20080;-65
2022/08/22 07:15:09;;;;;;;13.98;1.88;;;19.20;99.90;;;;;;5113543;27;20039;-65
2022/08/22 07:17:45;;;;;;;12.63;2.30;;;19.30;99.90;;;;;;5114582;27;20038;-65
2022/08/22 07:20:30;;;;;;;15.30;2.03;;;19.40;99.90;;;;;;5087318;27;20038;-65
2022/08/22 07:23:04;;;;;;;12.40;1.90;;;19.50;99.90;;;;;;5113957;27;20129;-65
2022/08/22 07:25:33;;;;;;;11.18;1.80;;;19.50;99.90;;;;;;5114572;27;20118;-65
2022/08/22 07:28:29;;;;;;;12.65;1.98;;;19.60;99.90;;;;;;5114425;27;20043;-66
2022/08/22 07:31:04;;;;;;;13.13;1.70;;;19.70;99.90;;;;;;5110559;27;20042;-64
2022/08/22 07:33:49;;;;;;;14.73;2.20;;;19.70;99.90;;;;;;5132862;27;20456;-65
2022/08/22 07:36:26;;;;;;;11.10;1.90;;;19.80;99.90;;;;;;5113913;27;20034;-65
2022/08/22 07:39:02;;;;;;;11.98;1.42;;;19.90;99.90;;;;;;5117633;27;20095;-65
2022/08/22 07:42:09;;;;;;;11.80;1.88;;;19.90;99.90;;;;;;5133389;27;20026;-65
2022/08/22 07:45:01;;;;;;;10.80;1.70;;;19.90;99.90;;;;;;5130635;27;20057;-64
2022/08/22 07:47:53;;;;;;;9.68;1.65;;;20.10;99.90;;;;;;5111468;27;20512;-65
2022/08/22 07:50:24;;;;;;;14.93;2.42;;;20.10;99.90;;;;;;5109006;27;20047;-66
2022/08/22 07:52:53;;;;;;;12.10;2.10;;;20.40;99.90;;;;;;5096837;27;20364;-65
2022/08/22 07:55:25;;;;;;;11.48;1.90;;;20.90;99.90;;;;;;5113313;27;20111;-66
2022/08/22 07:58:03;;;;;;;8.52;1.83;;;21.00;99.90;;;;;;5114164;27;20054;-66
2022/08/22 08:00:30;;;;;;;8.48;1.85;;;21.00;99.90;;;;;;5114439;27;20488;-66
2022/08/22 08:03:01;;;;;;;13.02;2.15;;;20.80;99.90;;;;;;5114157;27;20337;-66
2022/08/22 08:05:31;;;;;;;13.63;2.10;;;20.80;99.90;;;;;;5114326;27;20378;-65
2022/08/22 08:07:59;;;;;;;11.90;2.03;;;20.80;99.90;;;;;;5114187;27;20690;-65
2022/08/22 08:10:30;;;;;;;11.57;1.70;;;20.70;99.90;;;;;;5113815;27;20049;-65
2022/08/22 08:13:02;;;;;;;10.63;2.05;;;20.60;99.90;;;;;;5097084;27;20332;-64
2022/08/22 08:15:30;;;;;;;13.13;1.98;;;20.60;99.90;;;;;;5133145;27;20209;-65
2022/08/22 08:18:01;;;;;;;10.73;1.35;;;20.60;99.90;;;;;;5114155;27;20180;-65
2022/08/22 08:20:29;;;;;;;10.73;1.67;;;20.60;99.90;;;;;;5132667;27;20081;-64
2022/08/22 08:22:56;;;;;;;5.40;1.27;;;20.70;99.90;;;;;;5099338;27;20246;-65
2022/08/22 08:25:25;;;;;;;14.23;1.67;;;20.70;99.90;;;;;;5118228;27;20050;-65
2022/08/22 08:30:51;;;;;;;11.88;1.98;;;20.80;99.90;;;;;;5117592;27;20300;-66
2022/08/22 08:33:20;;;;;;;20.05;2.47;;;20.90;99.90;;;;;;5117786;27;20608;-66
2022/08/22 08:36:18;;;;;;;7.82;1.42;;;20.80;99.90;;;;;;5117615;27;20064;-66
2022/08/22 08:39:25;;;;;;;9.15;1.70;;;20.90;99.90;;;;;;5087326;27;20297;-65
2022/08/22 08:42:28;;;;;;;11.07;1.20;;;20.80;99.90;;;;;;5132922;27;20522;-65
2022/08/22 08:45:10;;;;;;;11.32;1.75;;;20.90;99.90;;;;;;5133452;27;20047;-64
2022/08/22 08:47:56;;;;;;;7.63;0.98;;;20.80;99.90;;;;;;5151592;27;20042;-65
2022/08/22 08:50:50;;;;;;;9.70;1.63;;;20.80;99.90;;;;;;5115410;27;20098;-66
2022/08/22 08:53:43;;;;;;;8.45;1.40;;;20.90;99.90;;;;;;5132842;27;20469;-64
2022/08/22 08:56:22;;;;;;;8.95;1.27;;;21.00;99.90;;;;;;5133332;27;20042;-65
2022/08/22 08:59:03;;;;;;;6.97;1.33;;;21.30;99.90;;;;;;5132641;27;20042;-65
2022/08/22 09:01:59;;;;;;;7.30;1.00;;;21.40;99.90;;;;;;5114546;27;20637;-65
2022/08/22 09:04:38;;;;;;;13.40;1.58;;;21.50;99.90;;;;;;5117254;27;20078;-65
2022/08/22 09:07:20;;;;;;;20.02;2.17;;;21.70;99.90;;;;;;5116794;27;20049;-64
2022/08/22 09:10:07;;;;;;;10.50;1.55;;;21.80;99.90;;;;;;5117444;27;20647;-65
2022/08/22 09:12:59;;;;;;;9.25;1.40;;;22.00;99.90;;;;;;5136029;27;20099;-65
2022/08/22 09:15:56;;;;;;;10.00;1.50;;;22.20;99.90;;;;;;5116694;27;20053;-65
2022/08/22 09:19:04;;;;;;;8.40;1.52;;;22.40;99.90;;;;;;5099956;27;20038;-66
2022/08/22 09:22:01;;;;;;;11.55;1.58;;;22.30;99.90;;;;;;5055693;28;20040;-66
2022/08/22 09:24:29;;;;;;;9.38;1.55;;;22.40;99.90;;;;;;5056631;28;20081;-65
2022/08/22 09:27:04;;;;;;;7.70;1.20;;;22.60;99.90;;;;;;5098951;27;20047;-66
2022/08/22 09:29:36;;;;;;;8.88;1.10;;;22.80;99.90;;;;;;5101268;27;20515;-66
2022/08/22 09:32:11;;;;;;;9.35;1.45;;;23.10;99.90;;;;;;5119217;27;20400;-66
2022/08/22 09:35:13;;;;;;;9.52;1.33;;;23.30;99.90;;;;;;5137550;27;20545;-66
2022/08/22 09:38:17;;;;;;;6.78;1.10;;;23.40;99.90;;;;;;5119939;27;20053;-65
2022/08/22 09:40:54;;;;;;;6.70;1.30;;;23.40;99.90;;;;;;5101381;27;20515;-66
2022/08/22 09:43:29;;;;;;;8.02;1.30;;;23.50;99.90;;;;;;5119670;27;20159;-67
2022/08/22 09:46:08;;;;;;;7.03;1.30;;;23.60;99.90;;;;;;5118308;27;20051;-66
2022/08/22 09:49:01;;;;;;;8.50;1.10;;;23.70;99.90;;;;;;5121628;27;20302;-65
2022/08/22 09:51:38;;;;;;;13.82;1.70;;;24.00;99.90;;;;;;5116185;27;20055;-65
2022/08/22 09:54:10;;;;;;;8.82;1.65;;;24.40;99.90;;;;;;5116409;27;20524;-65
2022/08/22 09:56:49;;;;;;;9.45;1.33;;;24.60;99.90;;;;;;5099576;27;20035;-66
2022/08/22 09:59:26;;;;;;;11.32;1.90;;;25.00;99.90;;;;;;5116598;27;20145;-66
2022/08/22 10:02:25;;;;;;;9.77;1.80;;;25.40;99.90;;;;;;5135285;27;20046;-65
2022/08/22 10:05:29;;;;;;;8.38;1.50;;;25.60;99.90;;;;;;5115937;27;20927;-65
2022/08/22 10:08:11;;;;;;;10.23;1.77;;;25.80;99.90;;;;;;5036501;28;20817;-64
2022/08/22 10:11:01;;;;;;;7.00;1.10;;;25.80;99.90;;;;;;5118702;27;20142;-65
2022/08/22 10:13:54;;;;;;;11.43;1.67;;;26.10;99.90;;;;;;5118122;27;20050;-64
2022/08/22 10:16:44;;;;;;;7.03;1.25;;;26.40;99.90;;;;;;5093399;27;20801;-64
2022/08/22 10:19:46;;;;;;;7.55;1.45;;;26.50;99.90;;;;;;5115292;27;20073;-64
2022/08/22 10:22:24;;;;;;;9.75;1.50;;;26.60;99.90;;;;;;5136984;27;20607;-66
2022/08/22 10:25:08;;;;;;;9.88;1.65;;;26.60;99.90;;;;;;5098897;27;20060;-65
2022/08/22 10:27:44;;;;;;;8.27;1.63;;;26.60;99.90;;;;;;5133958;27;20186;-67
2022/08/22 10:30:23;;;;;;;9.15;1.90;;;27.00;99.90;;;;;;5116508;27;20039;-66
2022/08/22 10:33:12;;;;;;;4.95;1.13;;;26.60;99.90;;;;;;5111475;27;20049;-66
2022/08/22 10:35:50;;;;;;;9.45;1.33;;;27.00;99.90;;;;;;5093224;27;20872;-66
2022/08/22 10:38:26;;;;;;;8.82;1.25;;;26.90;99.90;;;;;;5117274;27;20061;-66
2022/08/22 10:41:06;;;;;;;7.97;1.50;;;26.80;99.90;;;;;;5118703;27;20041;-66
2022/08/22 10:43:54;;;;;;;7.93;1.20;;;26.40;99.90;;;;;;5085299;27;20044;-65
2022/08/22 10:46:35;;;;;;;10.05;1.67;;;26.30;99.90;;;;;;5100345;27;20055;-66
2022/08/22 10:49:04;;;;;;;7.43;1.83;;;25.90;99.90;;;;;;5098322;27;20048;-67
2022/08/22 10:51:54;;;;;;;8.77;1.42;;;26.70;99.90;;;;;;5117898;27;20151;-66
2022/08/22 10:54:38;;;;;;;10.75;1.73;;;27.30;99.90;;;;;;5117449;27;20051;-66
2022/08/22 10:57:16;;;;;;;7.15;1.35;;;27.30;99.90;;;;;;5118122;27;20687;-66
2022/08/22 11:00:04;;;;;;;9.95;1.67;;;27.20;99.90;;;;;;5117754;27;20042;-66
2022/08/22 11:02:37;;;;;;;9.95;1.70;;;27.60;99.90;;;;;;5118033;27;20070;-67
2022/08/22 11:05:35;;;;;;;8.18;1.63;;;27.50;99.90;;;;;;5100334;27;20649;-66
2022/08/22 11:08:25;;;;;;;6.40;1.42;;;28.20;99.90;;;;;;5117822;27;20046;-66
2022/08/22 11:11:10;;;;;;;8.35;1.30;;;28.40;99.90;;;;;;5117681;27;20046;-66
2022/08/22 11:13:41;;;;;;;9.82;1.17;;;28.10;99.90;;;;;;5100495;27;20122;-66
2022/08/22 11:16:27;;;;;;;9.02;1.70;;;28.20;99.90;;;;;;5117688;27;20035;-67
2022/08/22 11:19:14;;;;;;;6.57;1.27;;;28.40;99.90;;;;;;5118077;27;20053;-66
2022/08/22 11:21:44;;;;;;;7.40;1.35;;;28.30;99.90;;;;;;5100214;27;20488;-66
2022/08/22 11:24:36;;;;;;;8.75;1.85;;;28.10;99.90;;;;;;5117400;27;20049;-66
2022/08/22 11:27:50;;;;;;;10.75;1.42;;;28.20;99.90;;;;;;5117125;27;20035;-66
2022/08/22 11:30:21;;;;;;;5.68;1.30;;;28.10;99.90;;;;;;5062260;27;20043;-66
2022/08/22 11:33:11;;;;;;;8.93;1.55;;;28.20;99.90;;;;;;5100296;27;20075;-66
2022/08/22 11:35:41;;;;;;;6.55;1.30;;;28.60;99.90;;;;;;5135898;27;20054;-66
2022/08/22 11:38:29;;;;;;;6.20;1.25;;;28.90;99.90;;;;;;5118045;27;20050;-66
2022/08/22 11:40:57;;;;;;;7.63;1.27;;;28.80;99.90;;;;;;5100103;27;20430;-66
2022/08/22 11:43:55;;;;;;;7.93;1.20;;;29.10;99.10;;;;;;5100019;27;20046;-67
2022/08/22 11:46:24;;;;;;;7.35;1.30;;;29.00;99.90;;;;;;5086395;27;20389;-67
2022/08/22 11:49:05;;;;;;;7.35;1.27;;;29.70;98.90;;;;;;5116597;27;20488;-67
2022/08/22 11:51:33;;;;;;;7.95;1.13;;;29.80;99.20;;;;;;5099569;27;20047;-67
2022/08/22 11:54:10;;;;;;;7.70;0.98;;;30.10;97.30;;;;;;5126106;27;20133;-66
2022/08/22 11:57:08;;;;;;;7.32;1.42;;;30.50;94.90;;;;;;5129536;27;20350;-65
2022/08/22 11:59:40;;;;;;;3.92;0.85;;;30.70;91.10;;;;;;5117027;27;20103;-65
2022/08/22 12:02:31;;;;;;;6.82;1.10;;;29.90;89.60;;;;;;5134080;27;20043;-65
2022/08/22 12:05:17;;;;;;;5.80;0.88;;;29.40;93.20;;;;;;5130419;27;20054;-65
2022/08/22 12:08:15;;;;;;;7.43;1.15;;;28.70;94.10;;;;;;5131454;27;20043;-65
2022/08/22 12:11:10;;;;;;;7.72;0.90;;;28.00;94.90;;;;;;5122326;27;20137;-64
2022/08/22 12:13:48;;;;;;;7.22;1.27;;;27.70;96.40;;;;;;5111549;27;20047;-65
2022/08/22 12:16:25;;;;;;;7.43;0.95;;;27.30;97.00;;;;;;5130164;27;20050;-65
2022/08/22 12:19:29;;;;;;;7.45;0.88;;;27.10;98.80;;;;;;5114938;27;20035;-65
2022/08/22 12:21:58;;;;;;;7.60;0.98;;;26.80;99.20;;;;;;5130813;27;20043;-64
2022/08/22 12:24:46;;;;;;;4.07;0.70;;;26.80;98.20;;;;;;5131078;27;20038;-64
2022/08/22 12:27:21;;;;;;;4.38;0.60;;;26.70;99.20;;;;;;5130243;27;20222;-66
2022/08/22 12:30:12;;;;;;;6.57;1.23;;;26.60;98.80;;;;;;5130388;27;20489;-67
2022/08/22 12:33:03;;;;;;;4.68;0.77;;;26.60;99.00;;;;;;5130371;27;20047;-65
2022/08/22 12:35:50;;;;;;;4.88;0.77;;;26.80;97.60;;;;;;5113616;27;20043;-65
2022/08/22 12:38:35;;;;;;;4.43;0.73;;;27.30;91.40;;;;;;5131114;27;20335;-66
2022/08/22 12:41:10;;;;;;;5.22;0.82;;;27.50;90.80;;;;;;5113272;27;20035;-64
2022/08/22 12:44:38;;;;;;;5.15;0.75;;;27.50;90.70;;;;;;5130874;27;20132;-65
2022/08/22 12:47:13;;;;;;;4.22;0.65;;;27.70;91.90;;;;;;5091515;28;20523;-65
2022/08/22 12:50:05;;;;;;;5.60;0.70;;;28.40;85.50;;;;;;5089819;28;20059;-66
2022/08/22 12:52:37;;;;;;;2.85;0.38;;;29.10;75.60;;;;;;5117473;27;20086;-65
2022/08/22 12:55:33;;;;;;;3.55;0.60;;;29.40;63.00;;;;;;5129079;27;20047;-66
2022/08/22 12:58:07;;;;;;;3.40;0.60;;;28.80;67.90;;;;;;5129941;27;20043;-66
2022/08/22 13:00:42;;;;;;;4.40;0.60;;;28.20;75.50;;;;;;5130451;27;20031;-64
2022/08/22 13:03:35;;;;;;;7.00;1.33;;;27.80;74.90;;;;;;5129583;27;20103;-67
2022/08/22 13:06:05;;;;;;;4.20;0.82;;;27.70;80.50;;;;;;5106079;27;20062;-66
2022/08/22 13:08:37;;;;;;;3.78;0.50;;;27.90;81.80;;;;;;5112197;27;20408;-66
2022/08/22 13:11:11;;;;;;;5.57;0.80;;;28.20;74.90;;;;;;5112281;27;20047;-65
2022/08/22 13:13:43;;;;;;;4.43;0.60;;;28.30;78.40;;;;;;5130000;27;20532;-65
2022/08/22 13:16:14;;;;;;;5.60;0.80;;;28.40;68.90;;;;;;5129947;27;20051;-65
2022/08/22 13:18:53;;;;;;;4.80;0.50;;;28.20;68.30;;;;;;5112014;27;20076;-64
2022/08/22 13:21:25;;;;;;;3.53;0.60;;;28.90;68.10;;;;;;5128561;27;20084;-65
2022/08/22 13:23:54;;;;;;;3.30;0.68;;;29.10;62.50;;;;;;5095436;27;20050;-65
2022/08/22 13:26:24;;;;;;;7.03;0.80;;;29.30;62.10;;;;;;5128958;27;20054;-67
2022/08/22 13:29:03;;;;;;;4.57;0.60;;;28.70;67.90;;;;;;5112036;27;20382;-65
2022/08/22 13:31:35;;;;;;;8.15;1.13;;;28.10;70.70;;;;;;5129007;27;20047;-65
2022/08/22 13:34:05;;;;;;;4.82;0.68;;;27.50;72.20;;;;;;5129381;27;20050;-65
2022/08/22 13:36:40;;;;;;;6.05;1.30;;;26.90;78.80;;;;;;5129079;27;20055;-65
2022/08/22 13:39:25;;;;;;;5.50;0.60;;;26.50;81.90;;;;;;5129207;27;20035;-64
2022/08/22 13:41:57;;;;;;;6.20;0.85;;;26.20;84.80;;;;;;5130365;27;20043;-63
2022/08/22 13:44:27;;;;;;;6.60;0.82;;;26.00;91.20;;;;;;5128496;27;20035;-63
2022/08/22 13:47:02;;;;;;;6.05;1.00;;;25.90;90.90;;;;;;5127834;27;20062;-64
2022/08/22 13:50:07;;;;;;;3.53;0.68;;;25.70;92.00;;;;;;5127173;27;20058;-63
2022/08/22 13:52:43;;;;;;;3.80;0.68;;;26.00;92.70;;;;;;5129474;27;20081;-64